sensor_id;sensor_type;location;lat;lon;timestamp;P1;durP1;ratioP1;P2;durP2;ratioP2
9759;SDS011;4919;48.792;9.202;2023-02-15T00:01:49;29.93;;;16.23;;
9759;SDS011;4919;48.792;9.202;2023-02-15T00:04:34;30.73;;;16.77;;
9759;SDS011;4919;48.792;9.202;2023-02-15T00:07:19;31.43;;;16.47;;
9759;SDS011;4919;48.792;9.202;2023-02-15T00:10:04;31.17;;;15.97;;
9759;SDS011;4919;48.792;9.202;2023-02-15T00:12:50;29.60;;;17.90;;
9759;SDS011;4919;48.792;9.202;2023-02-15T00:15:35;29.63;;;16.57;;
9759;SDS011;4919;48.792;9.202;2023-02-15T00:18:20;29.77;;;16.60;;
9759;SDS011;4919;48.792;9.202;2023-02-15T00:21:05;31.20;;;16.97;;
9759;SDS011;4919;48.792;9.202;2023-02-15T00:23:51;32.40;;;16.07;;
9759;SDS011;4919;48.792;9.202;2023-02-15T00:26:37;26.53;;;15.10;;
9759;SDS011;4919;48.792;9.202;2023-02-15T00:29:23;31.23;;;16.60;;
9759;SDS011;4919;48.792;9.202;2023-02-15T00:32:08;29.10;;;16.30;;
9759;SDS011;4919;48.792;9.202;2023-02-15T00:34:53;29.27;;;15.70;;
9759;SDS011;4919;48.792;9.202;2023-02-15T00:37:38;29.10;;;15.83;;
9759;SDS011;4919;48.792;9.202;2023-02-15T00:40:23;28.50;;;15.47;;
9759;SDS011;4919;48.792;9.202;2023-02-15T00:43:08;30.20;;;16.47;;
9759;SDS011;4919;48.792;9.202;2023-02-15T00:45:53;33.17;;;15.77;;
9759;SDS011;4919;48.792;9.202;2023-02-15T00:48:37;34.33;;;17.30;;
9759;SDS011;4919;48.792;9.202;2023-02-15T00:51:23;33.37;;;16.57;;
9759;SDS011;4919;48.792;9.202;2023-02-15T00:54:07;33.00;;;17.20;;
9759;SDS011;4919;48.792;9.202;2023-02-15T00:56:52;33.17;;;16.37;;
9759;SDS011;4919;48.792;9.202;2023-02-15T00:59:37;33.03;;;17.20;;
9759;SDS011;4919;48.792;9.202;2023-02-15T01:02:22;31.43;;;16.10;;
9759;SDS011;4919;48.792;9.202;2023-02-15T01:05:07;31.07;;;16.03;;
9759;SDS011;4919;48.792;9.202;2023-02-15T01:07:52;30.60;;;16.03;;
9759;SDS011;4919;48.792;9.202;2023-02-15T01:10:37;35.23;;;16.67;;
9759;SDS011;4919;48.792;9.202;2023-02-15T01:13:22;33.50;;;17.93;;
9759;SDS011;4919;48.792;9.202;2023-02-15T01:16:07;38.03;;;19.03;;
9759;SDS011;4919;48.792;9.202;2023-02-15T01:18:52;35.57;;;16.60;;
9759;SDS011;4919;48.792;9.202;2023-02-15T01:21:37;31.33;;;16.67;;
9759;SDS011;4919;48.792;9.202;2023-02-15T01:24:22;32.00;;;17.10;;
9759;SDS011;4919;48.792;9.202;2023-02-15T01:27:07;31.87;;;16.70;;
9759;SDS011;4919;48.792;9.202;2023-02-15T01:29:52;31.57;;;16.50;;
9759;SDS011;4919;48.792;9.202;2023-02-15T01:32:37;31.10;;;16.07;;
9759;SDS011;4919;48.792;9.202;2023-02-15T01:35:22;33.90;;;17.77;;
9759;SDS011;4919;48.792;9.202;2023-02-15T01:38:06;36.30;;;18.30;;
9759;SDS011;4919;48.792;9.202;2023-02-15T01:40:52;36.33;;;18.70;;
9759;SDS011;4919;48.792;9.202;2023-02-15T01:43:41;37.00;;;18.63;;
9759;SDS011;4919;48.792;9.202;2023-02-15T01:46:35;38.40;;;19.77;;
9759;SDS011;4919;48.792;9.202;2023-02-15T01:49:23;38.37;;;20.30;;
9759;SDS011;4919;48.792;9.202;2023-02-15T01:52:11;38.20;;;19.50;;
9759;SDS011;4919;48.792;9.202;2023-02-15T01:55:00;37.53;;;19.13;;
9759;SDS011;4919;48.792;9.202;2023-02-15T01:57:45;37.13;;;19.43;;
9759;SDS011;4919;48.792;9.202;2023-02-15T02:00:30;37.63;;;18.70;;
9759;SDS011;4919;48.792;9.202;2023-02-15T02:03:17;41.20;;;20.57;;
9759;SDS011;4919;48.792;9.202;2023-02-15T02:06:08;39.90;;;19.70;;
9759;SDS011;4919;48.792;9.202;2023-02-15T02:08:54;43.17;;;20.30;;
9759;SDS011;4919;48.792;9.202;2023-02-15T02:11:40;36.00;;;18.27;;
9759;SDS011;4919;48.792;9.202;2023-02-15T02:14:25;41.73;;;20.27;;
9759;SDS011;4919;48.792;9.202;2023-02-15T02:20:35;39.53;;;20.73;;
9759;SDS011;4919;48.792;9.202;2023-02-15T02:23:49;41.90;;;20.47;;
9759;SDS011;4919;48.792;9.202;2023-02-15T02:30:18;43.00;;;20.93;;
9759;SDS011;4919;48.792;9.202;2023-02-15T02:43:14;41.43;;;21.40;;
9759;SDS011;4919;48.792;9.202;2023-02-15T02:46:14;49.60;;;23.43;;
9759;SDS011;4919;48.792;9.202;2023-02-15T02:49:04;45.40;;;22.77;;
9759;SDS011;4919;48.792;9.202;2023-02-15T02:51:57;54.07;;;24.47;;
9759;SDS011;4919;48.792;9.202;2023-02-15T02:54:50;54.03;;;24.27;;
9759;SDS011;4919;48.792;9.202;2023-02-15T02:57:35;57.97;;;25.17;;
9759;SDS011;4919;48.792;9.202;2023-02-15T03:00:24;58.80;;;24.70;;
9759;SDS011;4919;48.792;9.202;2023-02-15T03:03:21;48.40;;;23.13;;
9759;SDS011;4919;48.792;9.202;2023-02-15T03:06:30;53.70;;;23.93;;
9759;SDS011;4919;48.792;9.202;2023-02-15T03:09:31;55.03;;;24.63;;
9759;SDS011;4919;48.792;9.202;2023-02-15T03:12:23;58.20;;;26.07;;
9759;SDS011;4919;48.792;9.202;2023-02-15T03:15:18;61.43;;;25.60;;
9759;SDS011;4919;48.792;9.202;2023-02-15T03:18:05;54.63;;;24.87;;
9759;SDS011;4919;48.792;9.202;2023-02-15T03:20:51;58.53;;;24.70;;
9759;SDS011;4919;48.792;9.202;2023-02-15T03:23:37;56.30;;;24.50;;
9759;SDS011;4919;48.792;9.202;2023-02-15T03:26:22;55.87;;;24.87;;
9759;SDS011;4919;48.792;9.202;2023-02-15T03:29:08;61.87;;;25.43;;
9759;SDS011;4919;48.792;9.202;2023-02-15T03:31:57;54.77;;;24.20;;
9759;SDS011;4919;48.792;9.202;2023-02-15T03:34:44;58.30;;;24.90;;
9759;SDS011;4919;48.792;9.202;2023-02-15T03:40:26;59.83;;;24.40;;
9759;SDS011;4919;48.792;9.202;2023-02-15T03:46:42;62.30;;;25.83;;
9759;SDS011;4919;48.792;9.202;2023-02-15T03:49:36;58.60;;;26.73;;
9759;SDS011;4919;48.792;9.202;2023-02-15T03:52:35;66.27;;;27.10;;
9759;SDS011;4919;48.792;9.202;2023-02-15T03:55:21;64.10;;;26.03;;
9759;SDS011;4919;48.792;9.202;2023-02-15T03:58:07;60.40;;;26.40;;
9759;SDS011;4919;48.792;9.202;2023-02-15T04:00:56;70.60;;;27.73;;
9759;SDS011;4919;48.792;9.202;2023-02-15T04:03:44;66.60;;;27.67;;
9759;SDS011;4919;48.792;9.202;2023-02-15T04:06:35;70.23;;;27.33;;
9759;SDS011;4919;48.792;9.202;2023-02-15T04:09:20;69.63;;;28.43;;
9759;SDS011;4919;48.792;9.202;2023-02-15T04:12:05;69.87;;;27.40;;
9759;SDS011;4919;48.792;9.202;2023-02-15T04:14:50;71.87;;;28.37;;
9759;SDS011;4919;48.792;9.202;2023-02-15T04:17:36;68.23;;;29.00;;
9759;SDS011;4919;48.792;9.202;2023-02-15T04:20:21;71.27;;;28.17;;
9759;SDS011;4919;48.792;9.202;2023-02-15T04:23:06;71.20;;;28.00;;
9759;SDS011;4919;48.792;9.202;2023-02-15T04:25:51;64.33;;;26.00;;
9759;SDS011;4919;48.792;9.202;2023-02-15T04:28:36;72.90;;;27.43;;
9759;SDS011;4919;48.792;9.202;2023-02-15T04:31:21;68.50;;;27.93;;
9759;SDS011;4919;48.792;9.202;2023-02-15T04:34:06;61.90;;;25.47;;
9759;SDS011;4919;48.792;9.202;2023-02-15T04:36:51;65.97;;;27.47;;
9759;SDS011;4919;48.792;9.202;2023-02-15T04:39:36;64.93;;;26.47;;
9759;SDS011;4919;48.792;9.202;2023-02-15T04:42:21;59.33;;;25.40;;
9759;SDS011;4919;48.792;9.202;2023-02-15T04:45:06;63.87;;;27.97;;
9759;SDS011;4919;48.792;9.202;2023-02-15T04:47:51;69.87;;;27.20;;
9759;SDS011;4919;48.792;9.202;2023-02-15T04:50:36;69.97;;;28.43;;
9759;SDS011;4919;48.792;9.202;2023-02-15T04:53:21;70.47;;;28.50;;
9759;SDS011;4919;48.792;9.202;2023-02-15T04:56:06;59.60;;;26.40;;
9759;SDS011;4919;48.792;9.202;2023-02-15T04:58:51;68.83;;;29.07;;
9759;SDS011;4919;48.792;9.202;2023-02-15T05:01:36;71.53;;;28.83;;
9759;SDS011;4919;48.792;9.202;2023-02-15T05:04:21;70.30;;;28.07;;
9759;SDS011;4919;48.792;9.202;2023-02-15T05:07:05;73.13;;;28.13;;
9759;SDS011;4919;48.792;9.202;2023-02-15T05:09:50;71.77;;;28.93;;
9759;SDS011;4919;48.792;9.202;2023-02-15T05:12:35;79.13;;;29.90;;
9759;SDS011;4919;48.792;9.202;2023-02-15T05:15:20;95.97;;;28.40;;
9759;SDS011;4919;48.792;9.202;2023-02-15T05:18:05;86.10;;;30.10;;
9759;SDS011;4919;48.792;9.202;2023-02-15T05:20:50;121.23;;;31.47;;
9759;SDS011;4919;48.792;9.202;2023-02-15T05:23:35;109.20;;;30.63;;
9759;SDS011;4919;48.792;9.202;2023-02-15T05:26:21;135.00;;;31.63;;
9759;SDS011;4919;48.792;9.202;2023-02-15T05:29:07;80.37;;;30.10;;
9759;SDS011;4919;48.792;9.202;2023-02-15T05:31:52;161.37;;;30.50;;
9759;SDS011;4919;48.792;9.202;2023-02-15T05:34:37;127.43;;;29.57;;
9759;SDS011;4919;48.792;9.202;2023-02-15T05:37:22;211.00;;;27.20;;
9759;SDS011;4919;48.792;9.202;2023-02-15T05:40:07;85.23;;;28.70;;
9759;SDS011;4919;48.792;9.202;2023-02-15T05:42:52;105.20;;;29.03;;
9759;SDS011;4919;48.792;9.202;2023-02-15T05:45:37;111.27;;;27.23;;
9759;SDS011;4919;48.792;9.202;2023-02-15T05:48:23;111.13;;;25.60;;
9759;SDS011;4919;48.792;9.202;2023-02-15T05:51:10;128.67;;;28.00;;
9759;SDS011;4919;48.792;9.202;2023-02-15T05:53:55;75.97;;;25.70;;
9759;SDS011;4919;48.792;9.202;2023-02-15T05:56:40;170.70;;;26.67;;
9759;SDS011;4919;48.792;9.202;2023-02-15T05:59:25;108.83;;;26.80;;
9759;SDS011;4919;48.792;9.202;2023-02-15T06:02:10;97.53;;;25.50;;
9759;SDS011;4919;48.792;9.202;2023-02-15T06:04:55;76.50;;;27.73;;
9759;SDS011;4919;48.792;9.202;2023-02-15T06:07:42;91.10;;;26.03;;
9759;SDS011;4919;48.792;9.202;2023-02-15T06:10:27;93.23;;;24.10;;
9759;SDS011;4919;48.792;9.202;2023-02-15T06:13:12;159.47;;;27.63;;
9759;SDS011;4919;48.792;9.202;2023-02-15T06:15:57;213.37;;;28.63;;
9759;SDS011;4919;48.792;9.202;2023-02-15T06:18:42;134.13;;;25.13;;
9759;SDS011;4919;48.792;9.202;2023-02-15T06:21:27;136.57;;;23.60;;
9759;SDS011;4919;48.792;9.202;2023-02-15T06:24:12;142.93;;;25.47;;
9759;SDS011;4919;48.792;9.202;2023-02-15T06:26:57;66.23;;;24.87;;
9759;SDS011;4919;48.792;9.202;2023-02-15T06:29:42;80.50;;;24.67;;
9759;SDS011;4919;48.792;9.202;2023-02-15T06:32:27;71.47;;;24.33;;
9759;SDS011;4919;48.792;9.202;2023-02-15T06:35:12;89.27;;;24.30;;
9759;SDS011;4919;48.792;9.202;2023-02-15T06:37:57;87.43;;;23.63;;
9759;SDS011;4919;48.792;9.202;2023-02-15T06:40:42;144.37;;;24.87;;
9759;SDS011;4919;48.792;9.202;2023-02-15T06:43:26;81.00;;;23.20;;
9759;SDS011;4919;48.792;9.202;2023-02-15T06:46:11;86.77;;;24.13;;
9759;SDS011;4919;48.792;9.202;2023-02-15T06:48:56;107.33;;;24.70;;
9759;SDS011;4919;48.792;9.202;2023-02-15T06:51:41;96.03;;;24.23;;
9759;SDS011;4919;48.792;9.202;2023-02-15T06:54:26;88.07;;;23.97;;
9759;SDS011;4919;48.792;9.202;2023-02-15T06:57:11;123.00;;;25.20;;
9759;SDS011;4919;48.792;9.202;2023-02-15T06:59:56;108.40;;;25.10;;
9759;SDS011;4919;48.792;9.202;2023-02-15T07:02:41;74.73;;;22.93;;
9759;SDS011;4919;48.792;9.202;2023-02-15T07:05:26;51.47;;;21.87;;
9759;SDS011;4919;48.792;9.202;2023-02-15T07:08:11;86.93;;;24.63;;
9759;SDS011;4919;48.792;9.202;2023-02-15T07:10:56;88.07;;;23.97;;
9759;SDS011;4919;48.792;9.202;2023-02-15T07:13:41;61.13;;;22.33;;
9759;SDS011;4919;48.792;9.202;2023-02-15T07:16:26;84.67;;;23.40;;
9759;SDS011;4919;48.792;9.202;2023-02-15T07:19:11;67.60;;;23.27;;
9759;SDS011;4919;48.792;9.202;2023-02-15T07:21:56;74.20;;;22.50;;
9759;SDS011;4919;48.792;9.202;2023-02-15T07:24:41;101.10;;;22.43;;
9759;SDS011;4919;48.792;9.202;2023-02-15T07:27:26;76.03;;;22.27;;
9759;SDS011;4919;48.792;9.202;2023-02-15T07:30:11;76.73;;;22.90;;
9759;SDS011;4919;48.792;9.202;2023-02-15T07:32:58;66.93;;;23.13;;
9759;SDS011;4919;48.792;9.202;2023-02-15T07:35:50;97.03;;;25.07;;
9759;SDS011;4919;48.792;9.202;2023-02-15T07:38:36;81.53;;;24.00;;
9759;SDS011;4919;48.792;9.202;2023-02-15T07:41:22;75.00;;;23.47;;
9759;SDS011;4919;48.792;9.202;2023-02-15T07:44:11;54.80;;;22.43;;
9759;SDS011;4919;48.792;9.202;2023-02-15T07:46:58;73.80;;;22.97;;
9759;SDS011;4919;48.792;9.202;2023-02-15T07:49:44;110.77;;;29.37;;
9759;SDS011;4919;48.792;9.202;2023-02-15T07:52:28;81.83;;;24.57;;
9759;SDS011;4919;48.792;9.202;2023-02-15T07:55:13;62.03;;;22.30;;
9759;SDS011;4919;48.792;9.202;2023-02-15T07:57:58;80.90;;;22.27;;
9759;SDS011;4919;48.792;9.202;2023-02-15T08:00:43;57.23;;;22.43;;
9759;SDS011;4919;48.792;9.202;2023-02-15T08:03:28;67.37;;;22.43;;
9759;SDS011;4919;48.792;9.202;2023-02-15T08:06:13;73.07;;;24.10;;
9759;SDS011;4919;48.792;9.202;2023-02-15T08:08:58;56.47;;;22.27;;
9759;SDS011;4919;48.792;9.202;2023-02-15T08:11:43;71.93;;;22.33;;
9759;SDS011;4919;48.792;9.202;2023-02-15T08:14:28;54.07;;;21.93;;
9759;SDS011;4919;48.792;9.202;2023-02-15T08:17:13;100.10;;;22.63;;
9759;SDS011;4919;48.792;9.202;2023-02-15T08:19:57;91.10;;;22.57;;
9759;SDS011;4919;48.792;9.202;2023-02-15T08:22:42;62.57;;;20.87;;
9759;SDS011;4919;48.792;9.202;2023-02-15T08:25:27;59.40;;;22.37;;
9759;SDS011;4919;48.792;9.202;2023-02-15T08:28:12;50.87;;;22.20;;
9759;SDS011;4919;48.792;9.202;2023-02-15T08:31:07;69.27;;;23.23;;
9759;SDS011;4919;48.792;9.202;2023-02-15T08:33:54;89.23;;;22.97;;
9759;SDS011;4919;48.792;9.202;2023-02-15T08:36:41;70.37;;;23.23;;
9759;SDS011;4919;48.792;9.202;2023-02-15T08:39:25;56.53;;;21.10;;
9759;SDS011;4919;48.792;9.202;2023-02-15T08:42:10;62.93;;;22.77;;
9759;SDS011;4919;48.792;9.202;2023-02-15T08:44:55;61.37;;;21.97;;
9759;SDS011;4919;48.792;9.202;2023-02-15T08:47:40;65.17;;;22.90;;
9759;SDS011;4919;48.792;9.202;2023-02-15T08:50:25;60.37;;;22.70;;
9759;SDS011;4919;48.792;9.202;2023-02-15T08:53:10;52.63;;;21.93;;
9759;SDS011;4919;48.792;9.202;2023-02-15T08:55:56;55.13;;;22.63;;
9759;SDS011;4919;48.792;9.202;2023-02-15T08:58:41;51.63;;;22.33;;
9759;SDS011;4919;48.792;9.202;2023-02-15T09:01:27;69.27;;;28.10;;
9759;SDS011;4919;48.792;9.202;2023-02-15T09:04:13;70.00;;;20.97;;
9759;SDS011;4919;48.792;9.202;2023-02-15T09:06:58;58.63;;;21.40;;
9759;SDS011;4919;48.792;9.202;2023-02-15T09:09:43;53.47;;;20.63;;
9759;SDS011;4919;48.792;9.202;2023-02-15T09:12:28;41.83;;;20.27;;
9759;SDS011;4919;48.792;9.202;2023-02-15T09:15:13;50.20;;;20.73;;
9759;SDS011;4919;48.792;9.202;2023-02-15T09:17:58;53.47;;;21.03;;
9759;SDS011;4919;48.792;9.202;2023-02-15T09:20:43;46.40;;;20.17;;
9759;SDS011;4919;48.792;9.202;2023-02-15T09:23:29;51.23;;;21.37;;
9759;SDS011;4919;48.792;9.202;2023-02-15T09:26:17;43.03;;;22.30;;
9759;SDS011;4919;48.792;9.202;2023-02-15T09:29:04;50.93;;;19.60;;
9759;SDS011;4919;48.792;9.202;2023-02-15T09:31:49;45.93;;;20.87;;
9759;SDS011;4919;48.792;9.202;2023-02-15T09:34:35;44.17;;;21.27;;
9759;SDS011;4919;48.792;9.202;2023-02-15T09:37:19;62.10;;;20.63;;
9759;SDS011;4919;48.792;9.202;2023-02-15T09:40:04;44.30;;;20.47;;
9759;SDS011;4919;48.792;9.202;2023-02-15T09:46:21;53.70;;;22.33;;
9759;SDS011;4919;48.792;9.202;2023-02-15T09:52:44;44.40;;;20.87;;
9759;SDS011;4919;48.792;9.202;2023-02-15T09:59:23;43.10;;;21.37;;
9759;SDS011;4919;48.792;9.202;2023-02-15T10:05:17;44.13;;;21.60;;
9759;SDS011;4919;48.792;9.202;2023-02-15T10:08:18;43.93;;;21.17;;
9759;SDS011;4919;48.792;9.202;2023-02-15T10:20:51;41.33;;;20.97;;
9759;SDS011;4919;48.792;9.202;2023-02-15T10:26:44;45.03;;;22.13;;
9759;SDS011;4919;48.792;9.202;2023-02-15T10:29:37;45.20;;;21.50;;
9759;SDS011;4919;48.792;9.202;2023-02-15T10:32:26;41.67;;;23.40;;
9759;SDS011;4919;48.792;9.202;2023-02-15T10:54:17;43.33;;;22.13;;
9759;SDS011;4919;48.792;9.202;2023-02-15T10:56:58;41.63;;;22.13;;
9759;SDS011;4919;48.792;9.202;2023-02-15T11:06:05;35.43;;;19.43;;
9759;SDS011;4919;48.792;9.202;2023-02-15T11:08:54;37.33;;;21.13;;
9759;SDS011;4919;48.792;9.202;2023-02-15T11:11:53;37.27;;;20.63;;
9759;SDS011;4919;48.792;9.202;2023-02-15T11:14:58;37.83;;;20.20;;
9759;SDS011;4919;48.792;9.202;2023-02-15T11:18:11;38.80;;;20.93;;
9759;SDS011;4919;48.792;9.202;2023-02-15T11:21:20;36.97;;;20.53;;
9759;SDS011;4919;48.792;9.202;2023-02-15T11:24:17;36.20;;;19.80;;
9759;SDS011;4919;48.792;9.202;2023-02-15T11:27:25;36.17;;;20.23;;
9759;SDS011;4919;48.792;9.202;2023-02-15T11:30:14;34.97;;;20.57;;
9759;SDS011;4919;48.792;9.202;2023-02-15T11:33:16;35.23;;;19.53;;
9759;SDS011;4919;48.792;9.202;2023-02-15T11:36:06;31.60;;;19.57;;
9759;SDS011;4919;48.792;9.202;2023-02-15T11:39:02;32.47;;;19.80;;
9759;SDS011;4919;48.792;9.202;2023-02-15T11:41:53;34.90;;;20.03;;
9759;SDS011;4919;48.792;9.202;2023-02-15T11:44:56;35.53;;;20.47;;
9759;SDS011;4919;48.792;9.202;2023-02-15T11:47:44;34.10;;;18.67;;
9759;SDS011;4919;48.792;9.202;2023-02-15T11:50:31;30.97;;;19.00;;
9759;SDS011;4919;48.792;9.202;2023-02-15T11:53:18;32.60;;;18.70;;
9759;SDS011;4919;48.792;9.202;2023-02-15T11:56:04;33.77;;;19.70;;
9759;SDS011;4919;48.792;9.202;2023-02-15T11:59:00;32.90;;;19.47;;
9759;SDS011;4919;48.792;9.202;2023-02-15T12:01:50;31.87;;;18.63;;
9759;SDS011;4919;48.792;9.202;2023-02-15T12:04:36;32.23;;;18.97;;
9759;SDS011;4919;48.792;9.202;2023-02-15T12:07:26;30.33;;;18.63;;
9759;SDS011;4919;48.792;9.202;2023-02-15T12:13:15;30.00;;;18.53;;
9759;SDS011;4919;48.792;9.202;2023-02-15T12:16:06;30.37;;;18.10;;
9759;SDS011;4919;48.792;9.202;2023-02-15T12:18:56;29.67;;;18.80;;
9759;SDS011;4919;48.792;9.202;2023-02-15T12:21:43;27.67;;;17.00;;
9759;SDS011;4919;48.792;9.202;2023-02-15T12:24:38;29.70;;;18.33;;
9759;SDS011;4919;48.792;9.202;2023-02-15T12:27:30;27.57;;;18.13;;
9759;SDS011;4919;48.792;9.202;2023-02-15T12:36:15;33.00;;;18.97;;
9759;SDS011;4919;48.792;9.202;2023-02-15T12:41:57;28.27;;;18.13;;
9759;SDS011;4919;48.792;9.202;2023-02-15T12:47:44;29.63;;;16.93;;
9759;SDS011;4919;48.792;9.202;2023-02-15T12:50:29;26.33;;;16.30;;
9759;SDS011;4919;48.792;9.202;2023-02-15T12:53:18;27.07;;;16.97;;
9759;SDS011;4919;48.792;9.202;2023-02-15T12:56:26;24.57;;;14.37;;
9759;SDS011;4919;48.792;9.202;2023-02-15T12:59:12;22.63;;;15.27;;
9759;SDS011;4919;48.792;9.202;2023-02-15T13:01:59;25.83;;;15.43;;
9759;SDS011;4919;48.792;9.202;2023-02-15T13:04:57;25.57;;;15.20;;
9759;SDS011;4919;48.792;9.202;2023-02-15T13:08:09;23.10;;;15.27;;
9759;SDS011;4919;48.792;9.202;2023-02-15T13:10:59;22.47;;;13.83;;
9759;SDS011;4919;48.792;9.202;2023-02-15T13:13:59;24.07;;;15.43;;
9759;SDS011;4919;48.792;9.202;2023-02-15T13:16:47;22.13;;;13.93;;
9759;SDS011;4919;48.792;9.202;2023-02-15T13:19:35;19.93;;;13.00;;
9759;SDS011;4919;48.792;9.202;2023-02-15T13:22:27;21.97;;;13.77;;
9759;SDS011;4919;48.792;9.202;2023-02-15T13:25:22;20.97;;;12.90;;
9759;SDS011;4919;48.792;9.202;2023-02-15T13:28:11;23.00;;;14.17;;
9759;SDS011;4919;48.792;9.202;2023-02-15T13:30:59;21.17;;;13.53;;
9759;SDS011;4919;48.792;9.202;2023-02-15T13:36:57;23.27;;;13.87;;
9759;SDS011;4919;48.792;9.202;2023-02-15T13:42:48;21.20;;;13.77;;
9759;SDS011;4919;48.792;9.202;2023-02-15T13:54:47;21.50;;;13.50;;
9759;SDS011;4919;48.792;9.202;2023-02-15T14:04:06;18.47;;;12.67;;
9759;SDS011;4919;48.792;9.202;2023-02-15T14:12:47;21.20;;;13.93;;
9759;SDS011;4919;48.792;9.202;2023-02-15T14:18:57;24.17;;;14.50;;
9759;SDS011;4919;48.792;9.202;2023-02-15T14:25:12;21.23;;;15.57;;
9759;SDS011;4919;48.792;9.202;2023-02-15T14:28:14;21.70;;;13.77;;
9759;SDS011;4919;48.792;9.202;2023-02-15T14:31:04;23.33;;;14.83;;
9759;SDS011;4919;48.792;9.202;2023-02-15T14:33:53;23.50;;;14.73;;
9759;SDS011;4919;48.792;9.202;2023-02-15T14:36:39;21.80;;;14.13;;
9759;SDS011;4919;48.792;9.202;2023-02-15T14:39:26;22.27;;;14.40;;
9759;SDS011;4919;48.792;9.202;2023-02-15T14:42:56;22.03;;;13.50;;
9759;SDS011;4919;48.792;9.202;2023-02-15T14:45:55;20.10;;;13.53;;
9759;SDS011;4919;48.792;9.202;2023-02-15T14:59:56;17.87;;;12.03;;
9759;SDS011;4919;48.792;9.202;2023-02-15T15:02:46;18.03;;;12.33;;
9759;SDS011;4919;48.792;9.202;2023-02-15T15:05:34;20.00;;;12.67;;
9759;SDS011;4919;48.792;9.202;2023-02-15T15:08:28;19.87;;;12.40;;
9759;SDS011;4919;48.792;9.202;2023-02-15T15:29:38;16.77;;;8.53;;
9759;SDS011;4919;48.792;9.202;2023-02-15T15:32:24;11.90;;;7.07;;
9759;SDS011;4919;48.792;9.202;2023-02-15T15:38:27;10.37;;;6.70;;
9759;SDS011;4919;48.792;9.202;2023-02-15T15:48:08;11.27;;;6.90;;
9759;SDS011;4919;48.792;9.202;2023-02-15T15:51:04;10.17;;;7.20;;
9759;SDS011;4919;48.792;9.202;2023-02-15T15:53:54;11.73;;;7.23;;
9759;SDS011;4919;48.792;9.202;2023-02-15T15:56:40;9.67;;;7.20;;
9759;SDS011;4919;48.792;9.202;2023-02-15T15:59:31;9.17;;;6.57;;
9759;SDS011;4919;48.792;9.202;2023-02-15T16:02:18;10.63;;;6.87;;
9759;SDS011;4919;48.792;9.202;2023-02-15T16:05:07;11.07;;;7.07;;
9759;SDS011;4919;48.792;9.202;2023-02-15T16:07:52;10.27;;;6.97;;
9759;SDS011;4919;48.792;9.202;2023-02-15T16:10:37;10.10;;;6.47;;
9759;SDS011;4919;48.792;9.202;2023-02-15T16:13:22;9.33;;;6.37;;
9759;SDS011;4919;48.792;9.202;2023-02-15T16:16:07;8.03;;;5.83;;
9759;SDS011;4919;48.792;9.202;2023-02-15T16:18:52;8.47;;;5.77;;
9759;SDS011;4919;48.792;9.202;2023-02-15T16:21:38;7.70;;;5.90;;
9759;SDS011;4919;48.792;9.202;2023-02-15T16:33:16;8.97;;;6.07;;
9759;SDS011;4919;48.792;9.202;2023-02-15T16:36:01;8.80;;;6.13;;
9759;SDS011;4919;48.792;9.202;2023-02-15T16:41:30;9.63;;;6.80;;
9759;SDS011;4919;48.792;9.202;2023-02-15T16:44:17;11.50;;;7.50;;
9759;SDS011;4919;48.792;9.202;2023-02-15T16:47:03;12.07;;;8.37;;
9759;SDS011;4919;48.792;9.202;2023-02-15T16:49:48;12.37;;;7.63;;
9759;SDS011;4919;48.792;9.202;2023-02-15T16:52:36;12.03;;;7.63;;
9759;SDS011;4919;48.792;9.202;2023-02-15T16:55:22;11.50;;;8.37;;
9759;SDS011;4919;48.792;9.202;2023-02-15T16:58:13;11.70;;;8.00;;
9759;SDS011;4919;48.792;9.202;2023-02-15T17:01:00;12.47;;;8.20;;
9759;SDS011;4919;48.792;9.202;2023-02-15T17:03:48;13.37;;;8.10;;
9759;SDS011;4919;48.792;9.202;2023-02-15T17:06:33;11.43;;;8.07;;
9759;SDS011;4919;48.792;9.202;2023-02-15T17:09:18;16.23;;;9.73;;
9759;SDS011;4919;48.792;9.202;2023-02-15T17:12:04;19.90;;;12.27;;
9759;SDS011;4919;48.792;9.202;2023-02-15T17:14:54;16.10;;;10.43;;
9759;SDS011;4919;48.792;9.202;2023-02-15T17:17:38;16.37;;;10.47;;
9759;SDS011;4919;48.792;9.202;2023-02-15T17:20:23;15.03;;;10.00;;
9759;SDS011;4919;48.792;9.202;2023-02-15T17:26:50;15.97;;;9.93;;
9759;SDS011;4919;48.792;9.202;2023-02-15T17:29:39;15.03;;;9.53;;
9759;SDS011;4919;48.792;9.202;2023-02-15T17:32:29;14.23;;;9.67;;
9759;SDS011;4919;48.792;9.202;2023-02-15T17:35:19;15.43;;;10.27;;
9759;SDS011;4919;48.792;9.202;2023-02-15T17:38:06;16.77;;;10.57;;
9759;SDS011;4919;48.792;9.202;2023-02-15T17:41:03;13.73;;;9.77;;
9759;SDS011;4919;48.792;9.202;2023-02-15T17:43:48;13.07;;;9.33;;
9759;SDS011;4919;48.792;9.202;2023-02-15T17:46:34;15.87;;;9.93;;
9759;SDS011;4919;48.792;9.202;2023-02-15T17:49:24;17.50;;;10.70;;
9759;SDS011;4919;48.792;9.202;2023-02-15T17:52:13;17.07;;;10.63;;
9759;SDS011;4919;48.792;9.202;2023-02-15T17:55:00;15.23;;;10.40;;
9759;SDS011;4919;48.792;9.202;2023-02-15T17:57:56;18.70;;;11.30;;
9759;SDS011;4919;48.792;9.202;2023-02-15T18:00:45;18.73;;;11.57;;
9759;SDS011;4919;48.792;9.202;2023-02-15T18:06:27;18.00;;;10.67;;
9759;SDS011;4919;48.792;9.202;2023-02-15T18:09:15;19.73;;;11.07;;
9759;SDS011;4919;48.792;9.202;2023-02-15T18:12:05;20.37;;;10.57;;
9759;SDS011;4919;48.792;9.202;2023-02-15T18:15:07;16.77;;;11.03;;
9759;SDS011;4919;48.792;9.202;2023-02-15T18:17:52;19.63;;;11.00;;
9759;SDS011;4919;48.792;9.202;2023-02-15T18:20:37;20.57;;;10.93;;
9759;SDS011;4919;48.792;9.202;2023-02-15T18:23:22;19.97;;;11.80;;
9759;SDS011;4919;48.792;9.202;2023-02-15T18:26:08;20.93;;;12.27;;
9759;SDS011;4919;48.792;9.202;2023-02-15T18:28:55;17.47;;;11.50;;
9759;SDS011;4919;48.792;9.202;2023-02-15T18:31:40;19.93;;;11.57;;
9759;SDS011;4919;48.792;9.202;2023-02-15T18:34:27;17.93;;;11.67;;
9759;SDS011;4919;48.792;9.202;2023-02-15T18:37:16;16.83;;;11.60;;
9759;SDS011;4919;48.792;9.202;2023-02-15T18:40:03;17.27;;;12.03;;
9759;SDS011;4919;48.792;9.202;2023-02-15T18:42:48;18.73;;;12.37;;
9759;SDS011;4919;48.792;9.202;2023-02-15T18:45:33;21.67;;;13.07;;
9759;SDS011;4919;48.792;9.202;2023-02-15T18:48:18;18.23;;;12.50;;
9759;SDS011;4919;48.792;9.202;2023-02-15T18:51:03;19.83;;;12.90;;
9759;SDS011;4919;48.792;9.202;2023-02-15T18:53:51;18.00;;;11.90;;
9759;SDS011;4919;48.792;9.202;2023-02-15T18:56:36;19.23;;;12.80;;
9759;SDS011;4919;48.792;9.202;2023-02-15T18:59:22;19.87;;;13.13;;
9759;SDS011;4919;48.792;9.202;2023-02-15T19:02:11;16.97;;;12.23;;
9759;SDS011;4919;48.792;9.202;2023-02-15T19:05:00;20.30;;;12.40;;
9759;SDS011;4919;48.792;9.202;2023-02-15T19:07:45;19.60;;;13.00;;
9759;SDS011;4919;48.792;9.202;2023-02-15T19:10:31;20.37;;;13.43;;
9759;SDS011;4919;48.792;9.202;2023-02-15T19:13:16;21.83;;;14.03;;
9759;SDS011;4919;48.792;9.202;2023-02-15T19:16:01;21.07;;;13.87;;
9759;SDS011;4919;48.792;9.202;2023-02-15T19:18:46;20.00;;;13.63;;
9759;SDS011;4919;48.792;9.202;2023-02-15T19:21:31;20.77;;;13.73;;
9759;SDS011;4919;48.792;9.202;2023-02-15T19:24:17;20.10;;;14.40;;
9759;SDS011;4919;48.792;9.202;2023-02-15T19:27:22;20.43;;;14.53;;
9759;SDS011;4919;48.792;9.202;2023-02-15T19:30:13;19.97;;;14.13;;
9759;SDS011;4919;48.792;9.202;2023-02-15T19:33:09;21.40;;;15.13;;
9759;SDS011;4919;48.792;9.202;2023-02-15T19:36:00;24.67;;;16.10;;
9759;SDS011;4919;48.792;9.202;2023-02-15T19:38:46;26.30;;;16.03;;
9759;SDS011;4919;48.792;9.202;2023-02-15T19:41:34;27.33;;;19.33;;
9759;SDS011;4919;48.792;9.202;2023-02-15T19:44:19;23.97;;;16.20;;
9759;SDS011;4919;48.792;9.202;2023-02-15T19:47:07;25.40;;;17.33;;
9759;SDS011;4919;48.792;9.202;2023-02-15T19:49:56;25.23;;;16.00;;
9759;SDS011;4919;48.792;9.202;2023-02-15T19:52:41;27.17;;;16.43;;
9759;SDS011;4919;48.792;9.202;2023-02-15T19:55:27;25.30;;;16.87;;